Fort Worth Meacham International Airport
KFTW : rendu visible

Aérodrome :











RETROUVEZ-NOUS SUR...

 
LOGIN :

S'inscrire | Disclaimer

   EN    FR    IT 

 









Légende :    VFR   VFR Marginal   IFR   IFR Intensif   IFR Très Intensif
Visi : 
Plafond : 
>= 8 km
>= 3000ft
5 à 8 km
1000 à 3000 ft
1500m à 5 km
500 à 1000 ft
800 à 1500m
200 à 500 ft
< 800m
< 200 ft
Symboles :   Orages  Brouillard  Fortes neiges  Fortes précipitations  Vent > 20 kt






- Altitude de l'aérodrome : 710 ft
- Code IATA : FTW


KFTW - Fort Worth Meacham International

DERNIER METAR :
  • 260553Z 17011KT 10SM OVC018 14/12 A2996 RMK AO2 SLP143 T01390117 10156 20133 401720039 58003

METARs EXPIRÉS :
  • 260453Z 16010KT 10SM FEW018 OVC024 14/12 A2998 RMK AO2 SLP148 T01440117
  • 260353Z 16013G22KT 10SM BKN025 OVC037 14/11 A2998 RMK AO2 SLP148 T01440111

TAF KFTW
Valide du 26 à 06h jusqu'au 27 à 06h UTC


260535Z 2606/2706 18010KT P6SM BKN020
FM260900 20009KT P6SM OVC018
FM261200 30009KT P6SM SCT008 OVC015
TEMPO 2613/2616 4SM -DZ BR BKN008
FM261800 34010KT P6SM SCT300
FM262300 33004KT P6SM FEW300



MET'MAP, la Météo Aéronautique d'un coup d'oeil ! - Copyright ORBIFLY Décembre 2007 - Disclaimer

ORBIFLY MET'MAP TEAM :

Programmation & Développement : Alexandra Zaïnal
Sur une idée originale de : Baudouin d'Aumeries
Assistance à la programmation : Marc-Olivier Méhu
Soutien technique & logistique : Manuel Goepfert

Contact : metmap@orbifly.com




SOURCES & CREDITS :

   NOAA       Earth
Advisory